Terminal Aerodrome Forecast
Issued by NWS

Current Version | Previous Version | Graphics & Text | Print | Product List | Glossary On
Versions: 1 2 3 4 5 6 7 8 9 10 11 12 13 14 15
000
FTUS41 KRNK 222320
TAFLWB
TAF
KLWB 222320Z 2300/2324 27004KT P6SM BKN250
     FM230700 00000KT 5SM BR SCT003
      TEMPO 2307/2308 2SM BR BKN001
     FM230800 00000KT 1/2SM FG OVC001
     FM231230 00000KT P6SM FEW150
     FM231600 31004KT P6SM SCT040=

USA.gov is the U.S. government's official web portal to all federal, state and local government web resources and services.